createdAt,value
2022-12-25T00:00:55.142Z,4.95
2022-12-25T00:03:21.889Z,4.94
2022-12-25T00:05:48.543Z,4.91
2022-12-25T00:08:15.293Z,4.88
2022-12-25T00:10:45.307Z,4.86
2022-12-25T00:13:12.361Z,4.86
2022-12-25T00:15:42.229Z,4.84
2022-12-25T00:18:08.902Z,4.81
2022-12-25T00:20:36.018Z,4.78
2022-12-25T00:23:02.725Z,4.77
2022-12-25T00:25:29.449Z,4.77
2022-12-25T00:27:56.182Z,4.78
2022-12-25T00:30:22.704Z,4.76
2022-12-25T00:32:49.202Z,4.76
2022-12-25T00:35:15.914Z,4.76
2022-12-25T00:37:46.713Z,4.74
2022-12-25T00:40:13.517Z,4.73
2022-12-25T00:42:40.077Z,4.70
2022-12-25T00:45:07.084Z,4.68
2022-12-25T00:47:36.447Z,4.65
2022-12-25T00:50:03.114Z,4.63
2022-12-25T00:52:29.807Z,4.61
2022-12-25T00:54:56.486Z,4.59
2022-12-25T00:57:22.981Z,4.59
2022-12-25T00:59:49.925Z,4.57
2022-12-25T01:02:26.000Z,4.54
2022-12-25T01:04:56.183Z,4.50
2022-12-25T01:07:25.281Z,4.47
2022-12-25T01:10:10.715Z,4.46
2022-12-25T01:12:40.878Z,4.45
2022-12-25T01:15:09.433Z,4.43
2022-12-25T01:17:36.465Z,4.43
2022-12-25T01:20:03.878Z,4.41
2022-12-25T01:22:30.684Z,4.41
2022-12-25T01:24:57.268Z,4.39
2022-12-25T01:27:25.480Z,4.37
2022-12-25T01:29:52.084Z,4.36
2022-12-25T01:32:18.599Z,4.36
2022-12-25T01:34:48.147Z,4.36
2022-12-25T01:37:17.540Z,4.36
2022-12-25T01:39:44.298Z,4.36
2022-12-25T01:42:17.456Z,4.36
2022-12-25T01:44:46.761Z,4.37
2022-12-25T01:47:15.167Z,4.44
2022-12-25T01:49:46.409Z,4.55
2022-12-25T01:52:24.058Z,4.65
2022-12-25T01:54:59.369Z,4.73
2022-12-25T01:57:32.956Z,4.76
2022-12-25T02:00:03.719Z,4.75
2022-12-25T02:02:31.910Z,4.71
2022-12-25T02:05:04.115Z,4.68
2022-12-25T02:07:34.761Z,4.63
2022-12-25T02:10:01.387Z,4.60
2022-12-25T02:12:35.419Z,4.57
2022-12-25T02:15:06.743Z,4.54
2022-12-25T02:17:42.656Z,4.51
2022-12-25T02:21:03.362Z,4.47
2022-12-25T02:23:54.996Z,4.45
2022-12-25T02:26:55.531Z,4.37
2022-12-25T02:29:33.418Z,4.32
2022-12-25T02:32:06.313Z,4.29
2022-12-25T02:34:42.701Z,4.26
2022-12-25T02:37:15.958Z,4.23
2022-12-25T02:39:58.602Z,4.25
2022-12-25T02:43:06.863Z,4.27
2022-12-25T02:46:01.413Z,4.27
2022-12-25T02:48:50.493Z,4.24
2022-12-25T02:51:39.229Z,4.22
2022-12-25T02:54:31.067Z,4.20
2022-12-25T02:57:17.997Z,4.19
2022-12-25T03:00:07.200Z,4.20
2022-12-25T03:02:53.592Z,4.23
2022-12-25T03:05:43.015Z,4.22
2022-12-25T03:08:25.273Z,4.21
2022-12-25T03:11:18.207Z,4.19
2022-12-25T03:13:48.966Z,4.19
2022-12-25T03:16:34.642Z,4.20
2022-12-25T03:19:21.710Z,4.22
2022-12-25T03:22:06.820Z,4.20
2022-12-25T03:24:52.081Z,4.20
2022-12-25T03:27:18.986Z,4.19
2022-12-25T03:30:04.194Z,4.16
2022-12-25T03:32:51.750Z,4.18
2022-12-25T03:35:29.344Z,4.22
2022-12-25T03:38:42.646Z,4.27
2022-12-25T03:41:43.189Z,4.33
2022-12-25T03:44:43.206Z,4.42
2022-12-25T03:47:36.291Z,4.52
2022-12-25T03:50:33.437Z,4.61
2022-12-25T03:53:22.504Z,4.69
2022-12-25T03:56:11.358Z,4.73
2022-12-25T03:58:56.452Z,4.73
2022-12-25T04:01:41.712Z,4.70
2022-12-25T04:04:27.026Z,4.68
2022-12-25T04:07:12.044Z,4.70
2022-12-25T04:09:57.151Z,4.76
2022-12-25T04:12:42.101Z,4.83
2022-12-25T04:15:28.068Z,4.82
2022-12-25T04:18:13.036Z,4.79
2022-12-25T04:20:58.278Z,4.76
2022-12-25T04:23:43.467Z,4.72
2022-12-25T04:26:28.590Z,4.71
2022-12-25T04:29:13.618Z,4.76
2022-12-25T04:31:58.968Z,4.82
2022-12-25T04:34:44.289Z,4.83
2022-12-25T04:37:10.803Z,4.77
2022-12-25T04:39:37.338Z,4.71
2022-12-25T04:42:03.946Z,4.68
2022-12-25T04:44:32.740Z,4.70
2022-12-25T04:46:59.483Z,4.76
2022-12-25T04:49:26.005Z,4.80
2022-12-25T04:51:52.741Z,4.84
2022-12-25T04:54:19.362Z,4.91
2022-12-25T04:56:46.286Z,5.01
2022-12-25T04:59:13.252Z,5.11
2022-12-25T05:01:39.829Z,5.22
2022-12-25T05:04:06.631Z,5.28
2022-12-25T05:06:33.224Z,5.32
2022-12-25T05:08:59.781Z,5.34
2022-12-25T05:11:27.605Z,5.32
2022-12-25T05:13:54.225Z,5.32
2022-12-25T05:16:21.506Z,5.31
2022-12-25T05:18:50.756Z,5.32
2022-12-25T05:21:17.731Z,5.34
2022-12-25T05:23:50.635Z,5.40
2022-12-25T05:26:19.700Z,5.48
2022-12-25T05:28:46.931Z,5.57
2022-12-25T05:31:13.754Z,5.66
2022-12-25T05:33:40.410Z,5.74
2022-12-25T05:36:12.301Z,5.82
2022-12-25T05:38:39.461Z,5.88
2022-12-25T05:41:06.174Z,5.94
2022-12-25T05:43:33.086Z,6.00
2022-12-25T05:46:05.752Z,6.04
2022-12-25T05:48:33.919Z,6.06
2022-12-25T05:51:05.623Z,6.08
2022-12-25T05:53:32.247Z,6.09
2022-12-25T05:56:02.186Z,6.11
2022-12-25T05:58:29.557Z,6.13
2022-12-25T06:00:56.461Z,6.13
2022-12-25T06:03:24.346Z,6.15
2022-12-25T06:05:51.076Z,6.17
2022-12-25T06:08:17.970Z,6.20
2022-12-25T06:10:44.514Z,6.23
2022-12-25T06:13:11.209Z,6.24
2022-12-25T06:15:41.871Z,6.26
2022-12-25T06:18:08.645Z,6.28
2022-12-25T06:20:35.188Z,6.30
2022-12-25T06:23:02.169Z,6.32
2022-12-25T06:25:28.684Z,6.34
2022-12-25T06:27:55.096Z,6.38
2022-12-25T06:30:21.620Z,6.38
2022-12-25T06:32:48.284Z,6.38
2022-12-25T06:35:14.774Z,6.34
2022-12-25T06:37:41.345Z,6.32
2022-12-25T06:40:08.631Z,6.28
2022-12-25T06:42:35.338Z,6.23
2022-12-25T06:45:01.960Z,6.18
2022-12-25T06:47:28.400Z,6.14
2022-12-25T06:49:55.097Z,6.09
2022-12-25T06:52:21.747Z,6.05
2022-12-25T06:54:48.254Z,6.04
2022-12-25T06:57:14.760Z,6.04
2022-12-25T06:59:41.485Z,6.04
2022-12-25T07:02:16.927Z,6.04
2022-12-25T07:04:43.550Z,6.02
2022-12-25T07:07:10.520Z,5.98
2022-12-25T07:09:39.087Z,5.94
2022-12-25T07:12:07.316Z,5.91
2022-12-25T07:14:34.146Z,5.86
2022-12-25T07:17:00.738Z,5.82
2022-12-25T07:19:27.767Z,5.81
2022-12-25T07:21:54.233Z,5.78
2022-12-25T07:24:22.107Z,5.75
2022-12-25T07:26:49.751Z,5.73
2022-12-25T07:29:16.884Z,5.73
2022-12-25T07:31:43.562Z,5.76
2022-12-25T07:34:10.503Z,5.83
2022-12-25T07:36:37.196Z,5.88
2022-12-25T07:39:04.190Z,5.90
2022-12-25T07:41:30.687Z,5.89
2022-12-25T07:44:13.326Z,5.86
2022-12-25T07:46:39.889Z,5.79
2022-12-25T07:49:06.680Z,5.77
2022-12-25T07:51:33.314Z,5.75
2022-12-25T07:53:59.999Z,5.74
2022-12-25T07:56:26.663Z,5.72
2022-12-25T07:58:53.236Z,5.70
2022-12-25T08:01:22.921Z,5.73
2022-12-25T08:03:54.948Z,5.79
2022-12-25T08:06:23.203Z,5.85
2022-12-25T08:08:49.767Z,5.89
2022-12-25T08:11:16.801Z,5.92
2022-12-25T08:13:43.370Z,5.92
2022-12-25T08:16:11.109Z,5.93
2022-12-25T08:18:39.063Z,5.92
2022-12-25T08:21:08.947Z,5.92
2022-12-25T08:23:38.213Z,5.92
2022-12-25T08:26:06.664Z,5.93
2022-12-25T08:28:34.367Z,5.96
2022-12-25T08:31:06.996Z,6.01
2022-12-25T08:33:33.687Z,6.08
2022-12-25T08:36:05.823Z,6.16
2022-12-25T08:38:33.013Z,6.25
2022-12-25T08:40:59.843Z,6.32
2022-12-25T08:43:27.383Z,6.39
2022-12-25T08:45:53.914Z,6.44
2022-12-25T08:48:20.492Z,6.51
2022-12-25T08:50:51.406Z,6.57
2022-12-25T08:53:20.176Z,6.64
2022-12-25T08:55:46.774Z,6.74
2022-12-25T08:58:14.757Z,6.82
2022-12-25T09:00:41.579Z,6.92
2022-12-25T09:03:08.164Z,7.00
2022-12-25T09:05:36.176Z,7.10
2022-12-25T09:08:02.928Z,7.17
2022-12-25T09:10:29.905Z,7.25
2022-12-25T09:12:56.598Z,7.36
2022-12-25T09:15:23.123Z,7.48
2022-12-25T09:17:49.723Z,7.57
2022-12-25T09:20:16.332Z,7.67
2022-12-25T09:22:42.972Z,7.73
2022-12-25T09:25:09.766Z,7.75
2022-12-25T09:27:36.524Z,7.76
2022-12-25T09:30:04.675Z,7.79
2022-12-25T09:32:31.406Z,7.82
2022-12-25T09:34:58.169Z,7.85
2022-12-25T09:37:24.855Z,7.89
2022-12-25T09:39:51.372Z,7.92
2022-12-25T09:42:24.967Z,7.90
2022-12-25T09:44:59.234Z,7.91
2022-12-25T09:47:30.822Z,7.91
2022-12-25T09:50:11.599Z,7.92
2022-12-25T09:52:55.058Z,7.96
2022-12-25T09:55:24.512Z,8.04
2022-12-25T09:58:00.827Z,8.11
2022-12-25T10:00:35.566Z,8.16
2022-12-25T10:03:08.066Z,8.17
2022-12-25T10:05:52.102Z,8.17
2022-12-25T10:08:41.970Z,8.17
2022-12-25T10:11:33.366Z,8.18
2022-12-25T10:14:44.343Z,8.19
2022-12-25T10:17:13.653Z,8.21
2022-12-25T10:19:51.723Z,8.20
2022-12-25T10:22:33.711Z,8.17
2022-12-25T10:25:02.538Z,8.18
2022-12-25T10:27:37.125Z,8.17
2022-12-25T10:30:17.287Z,8.17
2022-12-25T10:32:45.579Z,8.19
2022-12-25T10:35:14.460Z,8.20
2022-12-25T10:37:43.150Z,8.20
2022-12-25T10:40:29.863Z,8.20
2022-12-25T10:43:07.568Z,8.20
2022-12-25T10:45:44.026Z,8.19
2022-12-25T10:48:21.662Z,8.20
2022-12-25T10:50:48.947Z,8.20
2022-12-25T10:53:27.223Z,8.25
2022-12-25T10:55:59.268Z,8.32
2022-12-25T10:58:26.455Z,8.40
2022-12-25T11:00:56.847Z,8.48
2022-12-25T11:03:27.236Z,8.57
2022-12-25T11:05:54.661Z,8.66
2022-12-25T11:08:24.447Z,8.73
2022-12-25T11:11:09.123Z,8.78
2022-12-25T11:13:40.895Z,8.84
2022-12-25T11:16:13.759Z,8.89
2022-12-25T11:18:49.477Z,8.92
2022-12-25T11:21:22.138Z,8.96
2022-12-25T11:24:04.167Z,8.99
2022-12-25T11:26:36.901Z,9.00
2022-12-25T11:29:10.700Z,9.01
2022-12-25T11:31:41.218Z,9.04
2022-12-25T11:34:26.279Z,9.04
2022-12-25T11:36:53.437Z,9.08
2022-12-25T11:39:36.384Z,9.09
2022-12-25T11:42:11.828Z,9.14
2022-12-25T11:44:49.522Z,9.20
2022-12-25T11:47:31.023Z,9.29
2022-12-25T11:50:36.663Z,9.39
2022-12-25T11:53:06.727Z,9.45
2022-12-25T11:55:43.181Z,9.50
2022-12-25T11:58:22.604Z,9.56
2022-12-25T12:00:54.136Z,9.63
2022-12-25T12:03:27.129Z,9.70
2022-12-25T12:06:04.863Z,9.78
2022-12-25T12:08:33.538Z,9.86
2022-12-25T12:11:17.949Z,9.93
2022-12-25T12:13:57.592Z,10.00
2022-12-25T12:16:24.436Z,10.08
2022-12-25T12:18:51.313Z,10.13
2022-12-25T12:21:17.860Z,10.15
2022-12-25T12:24:17.225Z,10.21
2022-12-25T12:26:46.329Z,10.25
2022-12-25T12:29:38.878Z,10.30
2022-12-25T12:32:20.222Z,10.32
2022-12-25T12:34:50.155Z,10.31
2022-12-25T12:37:30.701Z,10.30
2022-12-25T12:39:58.096Z,10.27
2022-12-25T12:42:33.158Z,10.26
2022-12-25T12:45:28.753Z,10.26
2022-12-25T12:47:55.761Z,10.26
2022-12-25T12:50:33.361Z,10.25
2022-12-25T12:53:12.497Z,10.26
2022-12-25T12:55:39.081Z,10.27
2022-12-25T12:58:06.199Z,10.28
2022-12-25T13:00:51.921Z,10.33
2022-12-25T13:03:34.660Z,10.31
2022-12-25T13:06:17.387Z,10.28
2022-12-25T13:08:46.743Z,10.27
2022-12-25T13:11:16.628Z,10.29
2022-12-25T13:13:45.418Z,10.28
2022-12-25T13:16:30.957Z,10.28
2022-12-25T13:18:58.008Z,10.28
2022-12-25T13:21:29.549Z,10.29
2022-12-25T13:24:01.507Z,10.31
2022-12-25T13:26:29.149Z,10.31
2022-12-25T13:28:56.477Z,10.31
2022-12-25T13:31:28.150Z,10.30
2022-12-25T13:34:04.514Z,10.32
2022-12-25T13:36:37.359Z,10.31
2022-12-25T13:39:08.634Z,10.29
2022-12-25T13:42:05.842Z,10.27
2022-12-25T13:44:49.652Z,10.25
2022-12-25T13:47:25.390Z,10.24
2022-12-25T13:49:54.891Z,10.25
2022-12-25T13:52:28.177Z,10.26
2022-12-25T13:54:57.370Z,10.27
2022-12-25T13:57:35.232Z,10.27
2022-12-25T14:00:02.542Z,10.29
2022-12-25T14:02:35.988Z,10.27
2022-12-25T14:05:05.353Z,10.26
2022-12-25T14:07:32.181Z,10.27
2022-12-25T14:10:01.814Z,10.25
2022-12-25T14:12:30.281Z,10.25
2022-12-25T14:14:58.234Z,10.24
2022-12-25T14:17:25.617Z,10.24
2022-12-25T14:20:07.504Z,10.20
2022-12-25T14:22:36.059Z,10.18
2022-12-25T14:25:02.717Z,10.15
2022-12-25T14:27:32.388Z,10.12
2022-12-25T14:30:01.622Z,10.10
2022-12-25T14:32:31.401Z,10.06
2022-12-25T14:35:03.607Z,10.02
2022-12-25T14:37:32.668Z,10.01
2022-12-25T14:40:06.589Z,9.99
2022-12-25T14:42:37.803Z,9.96
2022-12-25T14:45:07.829Z,9.95
2022-12-25T14:47:51.275Z,9.93
2022-12-25T14:50:28.973Z,9.90
2022-12-25T14:52:56.562Z,9.90
2022-12-25T14:55:27.121Z,9.89
2022-12-25T14:58:06.179Z,9.87
2022-12-25T15:00:38.626Z,9.83
2022-12-25T15:03:17.455Z,9.83
2022-12-25T15:05:44.364Z,9.81
2022-12-25T15:08:13.771Z,9.81
2022-12-25T15:13:28.361Z,9.83
2022-12-25T15:16:00.922Z,9.83
2022-12-25T15:18:34.226Z,9.83
2022-12-25T15:21:01.041Z,9.86
2022-12-25T15:23:27.789Z,9.88
2022-12-25T15:25:54.583Z,9.89
2022-12-25T15:28:21.231Z,9.89
2022-12-25T15:30:49.751Z,9.90
2022-12-25T15:33:18.330Z,9.90
2022-12-25T15:35:45.094Z,9.91
2022-12-25T15:38:12.807Z,9.93
2022-12-25T15:40:40.290Z,9.95
2022-12-25T15:43:14.543Z,9.97
2022-12-25T15:45:49.063Z,9.97
2022-12-25T15:48:15.581Z,9.95
2022-12-25T15:50:42.761Z,9.93
2022-12-25T15:53:10.829Z,9.91
2022-12-25T15:55:37.818Z,9.89
2022-12-25T15:58:04.510Z,9.91
2022-12-25T16:00:31.401Z,9.92
2022-12-25T16:02:58.619Z,9.91
2022-12-25T16:05:26.842Z,9.92
2022-12-25T16:07:53.351Z,9.95
2022-12-25T16:10:20.381Z,9.97
2022-12-25T16:12:47.335Z,9.99
2022-12-25T16:15:15.616Z,10.03
2022-12-25T16:17:42.937Z,10.04
2022-12-25T16:20:10.095Z,10.05
2022-12-25T16:22:40.159Z,10.03
2022-12-25T16:25:13.269Z,10.02
2022-12-25T16:27:39.849Z,10.02
2022-12-25T16:30:07.115Z,10.03
2022-12-25T16:32:33.844Z,10.03
2022-12-25T16:35:00.525Z,10.07
2022-12-25T16:37:27.735Z,10.08
2022-12-25T16:39:54.278Z,10.10
2022-12-25T16:42:21.093Z,10.12
2022-12-25T16:44:47.775Z,10.15
2022-12-25T16:47:14.305Z,10.16
2022-12-25T16:49:40.895Z,10.17
2022-12-25T16:52:07.550Z,10.18
2022-12-25T16:54:34.101Z,10.20
2022-12-25T16:57:00.739Z,10.19
2022-12-25T16:59:30.859Z,10.18
2022-12-25T17:01:57.612Z,10.18
2022-12-25T17:04:25.303Z,10.18
2022-12-25T17:06:52.122Z,10.20
2022-12-25T17:09:18.805Z,10.23
2022-12-25T17:11:45.655Z,10.24
2022-12-25T17:14:12.285Z,10.26
2022-12-25T17:16:39.921Z,10.27
2022-12-25T17:19:18.077Z,10.28
2022-12-25T17:21:44.840Z,10.29
2022-12-25T17:24:11.999Z,10.32
2022-12-25T17:26:40.689Z,10.34
2022-12-25T17:29:08.915Z,10.34
2022-12-25T17:31:35.949Z,10.34
2022-12-25T17:34:03.176Z,10.34
2022-12-25T17:36:30.775Z,10.34
2022-12-25T17:39:01.432Z,10.32
2022-12-25T17:41:28.544Z,10.31
2022-12-25T17:43:55.148Z,10.29
2022-12-25T17:46:24.423Z,10.27
2022-12-25T17:48:52.466Z,10.27
2022-12-25T17:51:23.944Z,10.29
2022-12-25T17:53:56.271Z,10.32
2022-12-25T17:56:23.951Z,10.32
2022-12-25T17:58:53.147Z,10.32
2022-12-25T18:01:20.680Z,10.31
2022-12-25T18:03:47.759Z,10.31
2022-12-25T18:06:19.291Z,10.30
2022-12-25T18:08:48.437Z,10.32
2022-12-25T18:11:21.261Z,10.32
2022-12-25T18:13:51.883Z,10.32
2022-12-25T18:16:20.560Z,10.33
2022-12-25T18:18:51.821Z,10.32
2022-12-25T18:21:20.174Z,10.31
2022-12-25T18:23:47.068Z,10.28
2022-12-25T18:26:13.846Z,10.25
2022-12-25T18:28:42.579Z,10.25
2022-12-25T18:31:22.854Z,10.26
2022-12-25T18:33:50.414Z,10.27
2022-12-25T18:36:21.175Z,10.26
2022-12-25T18:38:50.414Z,10.27
2022-12-25T18:41:17.863Z,10.29
2022-12-25T18:43:52.062Z,10.31
2022-12-25T18:46:24.557Z,10.32
2022-12-25T18:48:52.458Z,10.33
2022-12-25T18:51:19.329Z,10.33
2022-12-25T18:53:46.137Z,10.33
2022-12-25T18:56:18.155Z,10.32
2022-12-25T18:58:46.185Z,10.32
2022-12-25T19:01:13.869Z,10.33
2022-12-25T19:03:40.673Z,10.32
2022-12-25T19:06:07.769Z,10.34
2022-12-25T19:08:38.843Z,10.36
2022-12-25T19:11:08.628Z,10.39
2022-12-25T19:13:35.835Z,10.41
2022-12-25T19:16:02.440Z,10.42
2022-12-25T19:18:30.304Z,10.45
2022-12-25T19:20:56.873Z,10.47
2022-12-25T19:23:23.713Z,10.50
2022-12-25T19:25:50.325Z,10.51
2022-12-25T19:28:17.815Z,10.55
2022-12-25T19:30:44.711Z,10.57
2022-12-25T19:33:17.514Z,10.61
2022-12-25T19:35:44.673Z,10.64
2022-12-25T19:38:11.401Z,10.67
2022-12-25T19:40:39.973Z,10.68
2022-12-25T19:43:07.737Z,10.69
2022-12-25T19:45:34.514Z,10.70
2022-12-25T19:48:01.422Z,10.71
2022-12-25T19:50:32.346Z,10.73
2022-12-25T19:52:59.179Z,10.74
2022-12-25T19:55:25.985Z,10.77
2022-12-25T19:57:52.671Z,10.79
2022-12-25T20:00:19.329Z,10.81
2022-12-25T20:02:47.725Z,10.82
2022-12-25T20:05:14.344Z,10.83
2022-12-25T20:07:40.956Z,10.87
2022-12-25T20:10:07.821Z,10.88
2022-12-25T20:12:34.538Z,10.91
2022-12-25T20:15:01.336Z,10.92
2022-12-25T20:17:27.881Z,10.93
2022-12-25T20:19:54.429Z,10.95
2022-12-25T20:22:21.224Z,10.97
2022-12-25T20:24:49.101Z,10.98
2022-12-25T20:27:15.710Z,11.00
2022-12-25T20:29:42.449Z,11.01
2022-12-25T20:32:09.638Z,11.02
2022-12-25T20:34:36.484Z,11.03
2022-12-25T20:37:03.300Z,11.02
2022-12-25T20:39:29.961Z,11.03
2022-12-25T20:41:56.659Z,11.02
2022-12-25T20:44:23.325Z,11.02
2022-12-25T20:46:50.094Z,11.03
2022-12-25T20:49:16.719Z,11.05
2022-12-25T20:51:43.573Z,11.06
2022-12-25T20:54:10.795Z,11.07
2022-12-25T20:56:37.628Z,11.09
2022-12-25T20:59:04.159Z,11.10
2022-12-25T21:01:31.869Z,11.12
2022-12-25T21:03:59.448Z,11.12
2022-12-25T21:06:26.463Z,11.15
2022-12-25T21:08:53.479Z,11.15
2022-12-25T21:11:21.441Z,11.15
2022-12-25T21:13:48.674Z,11.17
2022-12-25T21:16:22.272Z,11.17
2022-12-25T21:18:50.698Z,11.17
2022-12-25T21:21:17.306Z,11.17
2022-12-25T21:23:44.351Z,11.19
2022-12-25T21:26:19.170Z,11.20
2022-12-25T21:28:50.635Z,11.21
2022-12-25T21:31:19.066Z,11.19
2022-12-25T21:33:52.657Z,11.21
2022-12-25T21:36:27.264Z,11.20
2022-12-25T21:38:59.415Z,11.21
2022-12-25T21:41:27.929Z,11.23
2022-12-25T21:43:54.747Z,11.24
2022-12-25T21:46:21.771Z,11.26
2022-12-25T21:48:49.303Z,11.27
2022-12-25T21:51:38.223Z,11.30
2022-12-25T21:54:05.692Z,11.31
2022-12-25T21:56:39.854Z,11.31
2022-12-25T21:59:12.537Z,11.33
2022-12-25T22:01:39.369Z,11.33
2022-12-25T22:04:08.758Z,11.32
2022-12-25T22:06:54.962Z,11.33
2022-12-25T22:09:22.065Z,11.35
2022-12-25T22:12:07.522Z,11.37
2022-12-25T22:14:56.590Z,11.39
2022-12-25T22:17:50.882Z,11.39
2022-12-25T22:20:24.456Z,11.41
2022-12-25T22:22:51.751Z,11.42
2022-12-25T22:25:19.457Z,11.43
2022-12-25T22:27:47.765Z,11.44
2022-12-25T22:30:21.051Z,11.46
2022-12-25T22:32:48.673Z,11.46
2022-12-25T22:35:16.569Z,11.46
2022-12-25T22:37:43.826Z,11.47
2022-12-25T22:40:13.993Z,11.48
2022-12-25T22:42:41.818Z,11.49
2022-12-25T22:45:09.010Z,11.49
2022-12-25T22:47:35.616Z,11.50
2022-12-25T22:50:02.491Z,11.53
2022-12-25T22:52:29.168Z,11.53
2022-12-25T22:54:55.896Z,11.52
2022-12-25T22:57:22.716Z,11.52
2022-12-25T22:59:51.807Z,11.50
2022-12-25T23:02:18.855Z,11.50
2022-12-25T23:04:45.628Z,11.49
2022-12-25T23:07:14.483Z,11.52
2022-12-25T23:09:42.385Z,11.52
2022-12-25T23:12:29.519Z,11.52
2022-12-25T23:14:57.074Z,11.53
2022-12-25T23:17:47.084Z,11.53
2022-12-25T23:20:33.618Z,11.56
2022-12-25T23:23:19.677Z,11.57
2022-12-25T23:26:05.107Z,11.57
2022-12-25T23:28:50.496Z,11.60
2022-12-25T23:31:17.245Z,11.60
2022-12-25T23:33:44.285Z,11.60
2022-12-25T23:36:10.947Z,11.61
2022-12-25T23:38:37.590Z,11.58
2022-12-25T23:41:04.438Z,11.57
2022-12-25T23:43:31.009Z,11.57
2022-12-25T23:45:57.651Z,11.59
2022-12-25T23:48:24.182Z,11.59
2022-12-25T23:50:50.675Z,11.59
2022-12-25T23:53:17.376Z,11.59
2022-12-25T23:55:45.713Z,11.60
2022-12-25T23:58:14.147Z,11.61
